createdAt,value
2022-10-20T00:00:19.974Z,12.77
2022-10-20T00:03:23.586Z,11.93
2022-10-20T00:06:32.246Z,10.18
2022-10-20T00:09:34.775Z,12.53
2022-10-20T00:12:37.661Z,11.98
2022-10-20T00:15:40.383Z,11.70
2022-10-20T00:18:43.418Z,11.25
2022-10-20T00:21:46.160Z,12.60
2022-10-20T00:24:48.615Z,11.37
2022-10-20T00:27:52.059Z,10.32
2022-10-20T00:30:56.739Z,10.32
2022-10-20T00:33:59.754Z,10.77
2022-10-20T00:37:02.186Z,9.85
2022-10-20T00:40:05.139Z,11.23
2022-10-20T00:43:13.749Z,11.27
2022-10-20T00:46:20.761Z,9.80
2022-10-20T00:49:25.424Z,11.00
2022-10-20T00:52:27.943Z,11.25
2022-10-20T00:55:33.802Z,10.67
2022-10-20T00:58:36.413Z,10.40
2022-10-20T01:01:40.502Z,9.90
2022-10-20T01:04:43.738Z,10.90
2022-10-20T01:07:46.257Z,10.65
2022-10-20T01:11:07.103Z,11.70
2022-10-20T01:14:18.403Z,9.68
2022-10-20T01:17:40.032Z,10.70
2022-10-20T01:21:04.886Z,10.80
2022-10-20T01:27:40.108Z,9.10
2022-10-20T01:30:49.398Z,9.18
2022-10-20T01:34:12.548Z,10.02
2022-10-20T01:37:33.986Z,10.43
2022-10-20T01:40:45.174Z,10.88
2022-10-20T01:43:49.227Z,9.57
2022-10-20T01:46:52.933Z,10.18
2022-10-20T01:49:57.246Z,9.63
2022-10-20T01:53:00.423Z,9.90
2022-10-20T01:56:04.841Z,9.88
2022-10-20T01:59:32.646Z,9.97
2022-10-20T02:02:39.471Z,8.27
2022-10-20T02:06:16.325Z,9.80
2022-10-20T02:09:48.520Z,9.02
2022-10-20T02:12:56.829Z,9.75
2022-10-20T02:16:03.767Z,9.03
2022-10-20T02:19:09.210Z,9.43
2022-10-20T02:22:15.485Z,8.95
2022-10-20T02:25:19.010Z,8.77
2022-10-20T02:28:22.806Z,12.55
2022-10-20T02:31:25.755Z,8.20
2022-10-20T02:34:28.676Z,8.45
2022-10-20T02:37:31.303Z,8.07
2022-10-20T02:40:35.184Z,8.88
2022-10-20T02:43:38.080Z,8.38
2022-10-20T02:46:40.601Z,8.57
2022-10-20T02:49:43.390Z,9.18
2022-10-20T02:52:45.955Z,7.68
2022-10-20T02:55:48.464Z,8.50
2022-10-20T02:58:51.165Z,8.07
2022-10-20T03:01:53.901Z,8.67
2022-10-20T03:04:56.784Z,8.50
2022-10-20T03:07:59.578Z,8.80
2022-10-20T03:11:03.545Z,7.22
2022-10-20T03:14:06.075Z,8.88
2022-10-20T03:17:09.121Z,7.60
2022-10-20T03:20:12.334Z,8.18
2022-10-20T03:23:17.807Z,8.45
2022-10-20T03:26:22.550Z,9.30
2022-10-20T03:29:25.035Z,8.48
2022-10-20T03:32:27.677Z,8.40
2022-10-20T03:35:30.328Z,8.38
2022-10-20T03:38:32.813Z,6.38
2022-10-20T03:41:36.633Z,7.80
2022-10-20T03:44:40.035Z,7.80
2022-10-20T03:47:42.582Z,8.60
2022-10-20T03:50:46.733Z,8.63
2022-10-20T03:53:49.564Z,7.40
2022-10-20T03:56:52.277Z,7.68
2022-10-20T03:59:54.786Z,8.40
2022-10-20T04:02:57.482Z,7.77
2022-10-20T04:06:00.063Z,7.43
2022-10-20T04:09:03.022Z,7.10
2022-10-20T04:12:05.824Z,8.07
2022-10-20T04:15:09.146Z,8.15
2022-10-20T04:18:11.732Z,7.83
2022-10-20T04:21:14.243Z,7.93
2022-10-20T04:24:16.890Z,7.25
2022-10-20T04:27:19.737Z,7.60
2022-10-20T04:30:33.374Z,7.57
2022-10-20T04:33:36.246Z,6.93
2022-10-20T04:36:38.754Z,6.82
2022-10-20T04:39:41.507Z,6.50
2022-10-20T04:42:44.022Z,6.75
2022-10-20T04:45:46.585Z,8.57
2022-10-20T04:48:49.170Z,6.90
2022-10-20T04:51:56.332Z,7.50
2022-10-20T04:55:01.251Z,8.32
2022-10-20T04:58:03.920Z,7.75
2022-10-20T05:01:09.256Z,7.32
2022-10-20T05:04:11.733Z,7.07
2022-10-20T05:07:14.545Z,7.53
2022-10-20T05:10:21.955Z,6.72
2022-10-20T05:13:24.532Z,10.65
2022-10-20T05:16:27.605Z,7.57
2022-10-20T05:19:30.168Z,6.93
2022-10-20T05:22:33.573Z,6.60
2022-10-20T05:25:37.554Z,7.68
2022-10-20T05:28:43.679Z,6.18
2022-10-20T05:31:46.414Z,7.30
2022-10-20T05:34:49.056Z,8.40
2022-10-20T05:37:52.995Z,8.20
2022-10-20T05:41:11.994Z,7.18
2022-10-20T05:44:14.763Z,7.68
2022-10-20T05:47:17.964Z,12.30
2022-10-20T05:50:22.506Z,10.43
2022-10-20T05:53:27.664Z,9.00
2022-10-20T05:56:31.281Z,12.57
2022-10-20T05:59:34.046Z,10.23
2022-10-20T06:02:37.105Z,11.75
2022-10-20T06:05:40.103Z,10.63
2022-10-20T06:08:43.186Z,10.18
2022-10-20T06:11:46.002Z,10.73
2022-10-20T06:14:48.626Z,8.75
2022-10-20T06:17:51.228Z,7.80
2022-10-20T06:21:05.225Z,8.17
2022-10-20T06:24:07.817Z,8.32
2022-10-20T06:27:10.662Z,6.80
2022-10-20T06:30:13.716Z,6.78
2022-10-20T06:33:17.046Z,10.02
2022-10-20T06:36:22.520Z,6.90
2022-10-20T06:39:27.864Z,8.13
2022-10-20T06:42:30.605Z,7.10
2022-10-20T06:45:36.996Z,7.25
2022-10-20T06:48:39.690Z,7.90
2022-10-20T06:51:42.228Z,7.50
2022-10-20T06:54:46.492Z,8.63
2022-10-20T06:57:49.408Z,7.07
2022-10-20T07:01:11.288Z,9.48
2022-10-20T07:04:15.723Z,7.32
2022-10-20T07:07:18.773Z,10.93
2022-10-20T07:10:22.533Z,8.82
2022-10-20T07:13:25.700Z,9.45
2022-10-20T07:16:34.386Z,9.45
2022-10-20T07:19:38.130Z,10.88
2022-10-20T07:22:40.668Z,7.30
2022-10-20T07:25:43.272Z,6.75
2022-10-20T07:28:54.800Z,7.45
2022-10-20T07:31:59.980Z,7.55
2022-10-20T07:35:07.426Z,6.00
2022-10-20T07:38:10.718Z,7.67
2022-10-20T07:41:13.923Z,7.00
2022-10-20T07:44:18.181Z,6.80
2022-10-20T07:47:21.838Z,6.72
2022-10-20T07:50:27.794Z,8.38
2022-10-20T07:53:30.256Z,5.60
2022-10-20T07:57:04.266Z,6.95
2022-10-20T08:00:12.490Z,6.78
2022-10-20T08:03:18.957Z,7.95
2022-10-20T08:06:21.914Z,8.45
2022-10-20T08:09:26.114Z,6.87
2022-10-20T08:12:29.146Z,10.85
2022-10-20T08:15:37.768Z,10.02
2022-10-20T08:22:00.617Z,7.28
2022-10-20T08:25:04.748Z,8.33
2022-10-20T08:28:09.871Z,6.65
2022-10-20T08:31:14.198Z,6.72
2022-10-20T08:34:18.784Z,9.75
2022-10-20T08:37:21.992Z,8.07
2022-10-20T08:40:28.197Z,6.53
2022-10-20T08:43:33.720Z,6.68
2022-10-20T08:46:38.465Z,6.90
2022-10-20T08:49:41.113Z,8.25
2022-10-20T08:52:47.950Z,7.13
2022-10-20T08:55:51.674Z,7.17
2022-10-20T08:58:56.723Z,9.93
2022-10-20T09:02:01.104Z,8.07
2022-10-20T09:05:09.324Z,7.95
2022-10-20T09:08:12.112Z,7.90
2022-10-20T09:11:30.708Z,8.53
2022-10-20T09:14:36.276Z,7.97
2022-10-20T09:17:50.637Z,8.57
2022-10-20T09:21:04.359Z,12.68
2022-10-20T09:24:07.643Z,9.65
2022-10-20T09:27:43.838Z,8.47
2022-10-20T09:30:54.440Z,9.10
2022-10-20T09:33:57.072Z,11.57
2022-10-20T09:37:12.236Z,9.85
2022-10-20T09:40:16.481Z,9.48
2022-10-20T09:43:19.828Z,7.50
2022-10-20T09:46:48.796Z,7.50
2022-10-20T09:50:04.877Z,11.05
2022-10-20T09:53:19.135Z,12.45
2022-10-20T09:56:37.702Z,9.25
2022-10-20T09:59:54.308Z,12.30
2022-10-20T10:03:21.706Z,10.80
2022-10-20T10:06:42.332Z,7.90
2022-10-20T10:09:57.739Z,12.75
2022-10-20T10:13:03.721Z,8.45
2022-10-20T10:16:09.545Z,7.83
2022-10-20T10:19:20.867Z,11.80
2022-10-20T10:22:25.338Z,10.32
2022-10-20T10:25:29.627Z,10.50
2022-10-20T10:28:36.715Z,9.20
2022-10-20T10:31:50.279Z,10.00
2022-10-20T10:34:55.481Z,8.00
2022-10-20T10:37:59.492Z,13.63
2022-10-20T10:41:02.002Z,9.85
2022-10-20T10:44:21.711Z,10.70
2022-10-20T10:47:42.956Z,10.60
2022-10-20T10:51:00.222Z,9.07
2022-10-20T10:54:36.637Z,7.00
2022-10-20T10:58:03.417Z,11.80
2022-10-20T11:01:14.477Z,11.60
2022-10-20T11:04:36.211Z,11.10
2022-10-20T11:07:57.349Z,13.57
2022-10-20T11:11:23.988Z,9.77
2022-10-20T11:14:53.443Z,9.88
2022-10-20T11:18:21.845Z,8.88
2022-10-20T11:21:56.298Z,9.90
2022-10-20T11:25:28.997Z,11.55
2022-10-20T11:28:37.289Z,8.45
2022-10-20T11:31:51.170Z,12.75
2022-10-20T11:35:03.818Z,9.48
2022-10-20T11:38:18.794Z,10.47
2022-10-20T11:44:47.849Z,9.70
2022-10-20T11:47:57.438Z,9.35
2022-10-20T11:51:19.379Z,10.52
2022-10-20T11:54:49.126Z,6.93
2022-10-20T11:58:23.415Z,11.70
2022-10-20T12:01:38.234Z,11.50
2022-10-20T12:05:03.106Z,12.13
2022-10-20T12:08:47.909Z,7.75
2022-10-20T12:11:54.901Z,10.07
2022-10-20T12:15:01.044Z,7.45
2022-10-20T12:18:06.806Z,10.18
2022-10-20T12:21:11.426Z,9.98
2022-10-20T12:24:39.252Z,8.82
2022-10-20T12:27:41.861Z,7.43
2022-10-20T12:30:59.408Z,7.97
2022-10-20T12:34:02.044Z,8.63
2022-10-20T12:37:09.530Z,9.45
2022-10-20T12:40:15.755Z,10.20
2022-10-20T12:43:27.826Z,11.77
2022-10-20T12:46:31.871Z,10.50
2022-10-20T12:49:38.152Z,8.88
2022-10-20T12:52:40.911Z,7.95
2022-10-20T12:56:11.306Z,9.05
2022-10-20T12:59:23.601Z,7.93
2022-10-20T13:02:26.193Z,9.85
2022-10-20T13:05:42.211Z,10.55
2022-10-20T13:09:05.018Z,8.02
2022-10-20T13:12:26.599Z,9.60
2022-10-20T13:15:32.850Z,9.37
2022-10-20T13:18:44.819Z,9.98
2022-10-20T13:21:49.970Z,9.05
2022-10-20T13:24:56.580Z,11.18
2022-10-20T13:28:07.410Z,7.47
2022-10-20T13:31:43.485Z,10.13
2022-10-20T13:35:06.918Z,9.90
2022-10-20T13:38:32.367Z,11.00
2022-10-20T13:42:01.246Z,10.48
2022-10-20T13:45:21.491Z,10.73
2022-10-20T13:48:42.009Z,9.40
2022-10-20T13:51:49.346Z,12.27
2022-10-20T13:54:52.355Z,7.85
2022-10-20T13:58:05.597Z,8.55
2022-10-20T14:01:19.360Z,9.57
2022-10-20T14:04:27.846Z,7.07
2022-10-20T14:07:39.391Z,7.70
2022-10-20T14:10:51.923Z,6.90
2022-10-20T14:13:54.433Z,7.85
2022-10-20T14:17:07.136Z,10.15
2022-10-20T14:20:20.430Z,8.73
2022-10-20T14:23:24.418Z,6.68
2022-10-20T14:26:28.727Z,8.70
2022-10-20T14:29:38.782Z,8.85
2022-10-20T14:32:41.599Z,8.57
2022-10-20T14:35:51.905Z,10.87
2022-10-20T14:38:58.414Z,6.40
2022-10-20T14:42:03.512Z,10.15
2022-10-20T14:45:06.626Z,9.00
2022-10-20T14:48:15.571Z,8.35
2022-10-20T14:51:28.243Z,7.90
2022-10-20T14:54:31.001Z,6.07
2022-10-20T14:57:44.749Z,6.70
2022-10-20T15:00:50.229Z,6.97
2022-10-20T15:04:23.504Z,10.63
2022-10-20T15:07:33.595Z,8.33
2022-10-20T15:10:39.601Z,6.72
2022-10-20T15:13:51.644Z,7.32
2022-10-20T15:16:54.469Z,8.15
2022-10-20T15:19:57.455Z,6.57
2022-10-20T15:23:01.229Z,11.17
2022-10-20T15:26:15.486Z,10.20
2022-10-20T15:29:18.568Z,51.38
2022-10-20T15:32:21.229Z,58.30
2022-10-20T15:35:24.631Z,27.90
2022-10-20T15:38:28.331Z,30.07
2022-10-20T15:41:33.567Z,33.20
2022-10-20T15:44:36.125Z,41.15
2022-10-20T15:47:38.582Z,38.78
2022-10-20T15:50:44.117Z,39.38
2022-10-20T15:53:49.570Z,37.53
2022-10-20T15:56:52.708Z,34.03
2022-10-20T15:59:55.645Z,33.53
2022-10-20T16:02:58.362Z,30.85
2022-10-20T16:06:01.274Z,34.10
2022-10-20T16:09:05.402Z,34.83
2022-10-20T16:12:10.448Z,27.77
2022-10-20T16:15:33.198Z,34.33
2022-10-20T16:18:56.109Z,26.15
2022-10-20T16:22:18.813Z,22.95
2022-10-20T16:25:41.936Z,29.77
2022-10-20T16:29:05.168Z,26.38
2022-10-20T16:32:32.860Z,29.90
2022-10-20T16:35:43.996Z,24.15
2022-10-20T16:38:47.653Z,28.08
2022-10-20T16:41:51.093Z,23.33
2022-10-20T16:44:54.383Z,22.10
2022-10-20T16:47:57.807Z,20.45
2022-10-20T16:51:10.203Z,23.90
2022-10-20T16:54:14.458Z,24.48
2022-10-20T16:57:19.197Z,26.47
2022-10-20T17:00:23.626Z,32.25
2022-10-20T17:03:27.684Z,25.02
2022-10-20T17:06:33.759Z,25.45
2022-10-20T17:09:37.269Z,25.48
2022-10-20T17:12:43.402Z,25.37
2022-10-20T17:15:51.827Z,22.67
2022-10-20T17:18:59.952Z,25.05
2022-10-20T17:22:03.624Z,21.00
2022-10-20T17:25:10.205Z,27.00
2022-10-20T17:28:16.083Z,17.40
2022-10-20T17:31:19.776Z,22.13
2022-10-20T17:34:24.997Z,21.52
2022-10-20T17:37:30.020Z,19.33
2022-10-20T17:40:38.810Z,22.15
2022-10-20T17:43:45.481Z,26.43
2022-10-20T17:46:49.769Z,22.75
2022-10-20T17:49:54.446Z,21.23
2022-10-20T17:53:02.844Z,20.35
2022-10-20T17:56:10.420Z,25.77
2022-10-20T17:59:15.397Z,23.77
2022-10-20T18:02:26.646Z,23.75
2022-10-20T18:05:30.317Z,18.83
2022-10-20T18:08:34.381Z,17.30
2022-10-20T18:11:41.226Z,26.02
2022-10-20T18:14:45.804Z,18.83
2022-10-20T18:17:49.151Z,18.20
2022-10-20T18:20:57.693Z,20.25
2022-10-20T18:24:08.395Z,15.65
2022-10-20T18:27:13.403Z,17.00
2022-10-20T18:30:17.077Z,22.30
2022-10-20T18:33:22.092Z,18.02
2022-10-20T18:36:27.495Z,20.67
2022-10-20T18:39:34.111Z,21.42
2022-10-20T18:42:38.716Z,22.77
2022-10-20T18:45:51.449Z,14.90
2022-10-20T18:48:56.688Z,16.48
2022-10-20T18:52:03.767Z,17.15
2022-10-20T18:55:10.493Z,17.55
2022-10-20T18:58:14.367Z,18.17
2022-10-20T19:01:21.096Z,17.87
2022-10-20T19:04:25.529Z,16.83
2022-10-20T19:07:34.848Z,19.02
2022-10-20T19:10:44.318Z,16.95
2022-10-20T19:13:48.985Z,13.80
2022-10-20T19:16:55.266Z,17.67
2022-10-20T19:19:59.169Z,17.75
2022-10-20T19:23:03.619Z,18.00
2022-10-20T19:26:22.858Z,14.38
2022-10-20T19:29:29.654Z,14.65
2022-10-20T19:32:35.834Z,15.40
2022-10-20T19:35:42.015Z,18.13
2022-10-20T19:38:53.294Z,14.75
2022-10-20T19:41:59.080Z,14.80
2022-10-20T19:45:04.463Z,15.75
2022-10-20T19:48:09.021Z,12.70
2022-10-20T19:51:13.970Z,12.40
2022-10-20T19:54:18.627Z,14.57
2022-10-20T19:57:24.396Z,14.00
2022-10-20T20:00:28.584Z,16.65
2022-10-20T20:03:31.925Z,15.57
2022-10-20T20:06:35.311Z,16.30
2022-10-20T20:09:39.669Z,12.52
2022-10-20T20:12:44.003Z,15.25
2022-10-20T20:15:47.160Z,15.57
2022-10-20T20:18:50.658Z,15.07
2022-10-20T20:21:54.231Z,13.82
2022-10-20T20:24:57.406Z,12.52
2022-10-20T20:28:00.781Z,13.35
2022-10-20T20:31:10.660Z,14.98
2022-10-20T20:34:13.744Z,13.23
2022-10-20T20:37:16.387Z,14.20
2022-10-20T20:40:20.263Z,12.52
2022-10-20T20:43:24.555Z,15.80
2022-10-20T20:46:30.936Z,15.00
2022-10-20T20:49:33.725Z,11.13
2022-10-20T20:52:36.686Z,12.85
2022-10-20T20:55:39.316Z,14.20
2022-10-20T20:58:45.422Z,13.05
2022-10-20T21:01:48.047Z,11.63
2022-10-20T21:04:50.612Z,11.13
2022-10-20T21:07:53.179Z,13.73
2022-10-20T21:10:55.685Z,14.68
2022-10-20T21:13:59.164Z,12.75
2022-10-20T21:17:02.144Z,12.57
2022-10-20T21:20:05.116Z,12.30
2022-10-20T21:23:09.153Z,11.50
2022-10-20T21:26:13.582Z,11.05
2022-10-20T21:29:16.652Z,12.27
2022-10-20T21:32:20.497Z,12.57
2022-10-20T21:35:23.808Z,10.77
2022-10-20T21:38:29.234Z,16.52
2022-10-20T21:41:34.188Z,13.45
2022-10-20T21:44:36.624Z,12.75
2022-10-20T21:47:39.155Z,14.38
2022-10-20T21:50:41.657Z,13.97
2022-10-20T21:53:44.738Z,14.02
2022-10-20T21:56:47.477Z,13.60
2022-10-20T21:59:50.799Z,18.15
2022-10-20T22:02:54.203Z,13.60
2022-10-20T22:05:56.670Z,12.60
2022-10-20T22:08:59.328Z,14.60
2022-10-20T22:12:02.112Z,12.70
2022-10-20T22:15:08.491Z,15.68
2022-10-20T22:18:10.954Z,14.38
2022-10-20T22:21:16.343Z,13.63
2022-10-20T22:24:21.426Z,14.18
2022-10-20T22:27:31.383Z,14.27
2022-10-20T22:30:44.149Z,15.70
2022-10-20T22:33:47.014Z,11.43
2022-10-20T22:36:49.575Z,12.23
2022-10-20T22:39:52.135Z,14.25
2022-10-20T22:42:54.651Z,14.23
2022-10-20T22:45:57.634Z,13.35
2022-10-20T22:49:00.288Z,13.75
2022-10-20T22:52:02.888Z,12.60
2022-10-20T22:55:05.970Z,15.90
2022-10-20T22:58:08.483Z,13.02
2022-10-20T23:01:15.479Z,12.48
2022-10-20T23:04:18.003Z,12.45
2022-10-20T23:07:20.861Z,13.90
2022-10-20T23:10:23.578Z,11.07
2022-10-20T23:13:26.360Z,14.75
2022-10-20T23:16:28.855Z,12.35
2022-10-20T23:19:31.548Z,12.85
2022-10-20T23:22:34.110Z,13.20
2022-10-20T23:25:40.845Z,13.13
2022-10-20T23:28:43.386Z,12.02
2022-10-20T23:31:45.998Z,15.40
2022-10-20T23:34:48.465Z,14.60
2022-10-20T23:37:51.709Z,12.10
2022-10-20T23:40:54.197Z,12.90
2022-10-20T23:43:57.000Z,15.18
2022-10-20T23:46:59.809Z,14.77
2022-10-20T23:50:02.311Z,15.13
2022-10-20T23:53:05.093Z,13.63
2022-10-20T23:56:08.055Z,14.63
2022-10-20T23:59:10.514Z,13.95
